createdAt,value
2019-04-22T00:03:32.982Z,95.40
2019-04-22T00:08:50.930Z,95.70
2019-04-22T00:13:56.890Z,97.00
2019-04-22T00:24:04.513Z,97.30
2019-04-22T00:29:14.494Z,97.80
2019-04-22T00:34:03.157Z,98.20
2019-04-22T00:39:18.422Z,98.50
2019-04-22T00:44:22.242Z,99.00
2019-04-22T00:50:01.853Z,98.90
2019-04-22T00:54:21.537Z,99.80
2019-04-22T00:59:32.949Z,99.90
2019-04-22T01:04:37.499Z,99.90
2019-04-22T01:09:38.900Z,99.90
2019-04-22T01:14:42.987Z,99.90
2019-04-22T01:19:47.185Z,99.90
2019-04-22T01:24:46.665Z,99.90
2019-04-22T01:29:44.048Z,99.90
2019-04-22T01:34:46.782Z,99.90
2019-04-22T01:45:11.840Z,99.90
2019-04-22T01:50:06.220Z,99.90
2019-04-22T01:55:18.989Z,99.90
2019-04-22T02:00:05.239Z,99.90
2019-04-22T02:05:17.708Z,99.90
2019-04-22T02:10:32.254Z,99.90
2019-04-22T02:15:23.342Z,99.90
2019-04-22T02:20:25.373Z,99.90
2019-04-22T02:25:33.470Z,99.90
2019-04-22T02:30:56.491Z,99.90
2019-04-22T02:35:58.253Z,99.90
2019-04-22T02:41:07.588Z,99.90
2019-04-22T02:51:02.147Z,99.90
2019-04-22T03:01:13.592Z,99.90
2019-04-22T03:06:21.861Z,99.90
2019-04-22T03:11:22.231Z,99.90
2019-04-22T03:26:27.413Z,99.90
2019-04-22T03:37:05.118Z,99.90
2019-04-22T03:46:59.151Z,99.90
2019-04-22T03:57:17.742Z,99.90
2019-04-22T04:01:57.452Z,99.90
2019-04-22T04:07:11.057Z,99.90
2019-04-22T04:12:03.536Z,99.90
2019-04-22T04:17:06.343Z,99.90
2019-04-22T04:22:08.024Z,99.90
2019-04-22T04:27:20.906Z,99.90
2019-04-22T04:32:27.398Z,99.90
2019-04-22T04:37:37.370Z,99.90
2019-04-22T04:47:39.124Z,99.90
2019-04-22T04:52:39.756Z,99.90
2019-04-22T04:57:33.706Z,99.90
2019-04-22T05:17:47.350Z,99.90
2019-04-22T05:22:44.417Z,99.90
2019-04-22T05:27:49.117Z,99.90
2019-04-22T05:37:57.678Z,99.90
2019-04-22T05:42:55.990Z,99.90
2019-04-22T05:47:57.518Z,99.90
2019-04-22T05:53:14.957Z,99.90
2019-04-22T06:03:23.505Z,99.90
2019-04-22T06:08:10.297Z,99.90
2019-04-22T06:13:11.156Z,99.90
2019-04-22T06:18:25.513Z,99.90
2019-04-22T06:28:36.678Z,99.90
2019-04-22T06:33:34.757Z,99.90
2019-04-22T06:38:37.669Z,99.90
2019-04-22T06:43:47.145Z,99.90
2019-04-22T06:48:41.778Z,99.90
2019-04-22T06:54:03.346Z,99.90
2019-04-22T06:58:55.260Z,99.90
2019-04-22T07:04:03.311Z,99.90
2019-04-22T07:09:17.562Z,99.90
2019-04-22T07:14:01.780Z,99.90
2019-04-22T07:19:05.967Z,99.90
2019-04-22T07:24:27.768Z,99.90
2019-04-22T07:29:07.434Z,99.90
2019-04-22T07:34:24.098Z,99.90
2019-04-22T07:39:15.663Z,99.90
2019-04-22T07:44:26.504Z,99.90
2019-04-22T07:49:33.842Z,99.90
2019-04-22T07:54:25.817Z,99.90
2019-04-22T07:59:35.219Z,98.90
2019-04-22T08:09:44.544Z,98.70
2019-04-22T08:14:49.989Z,97.80
2019-04-22T08:19:48.447Z,98.20
2019-04-22T08:24:57.786Z,97.90
2019-04-22T08:34:55.676Z,95.10
2019-04-22T08:40:08.822Z,95.90
2019-04-22T08:45:09.625Z,95.40
2019-04-22T08:50:13.853Z,96.40
2019-04-22T08:55:17.469Z,94.90
2019-04-22T09:00:13.010Z,94.30
2019-04-22T09:05:37.306Z,95.00
2019-04-22T09:10:24.394Z,94.90
2019-04-22T09:15:31.019Z,94.90
2019-04-22T09:20:35.622Z,94.00
2019-04-22T09:25:35.997Z,94.00
2019-04-22T09:30:52.477Z,93.90
2019-04-22T09:40:45.704Z,94.10
2019-04-22T09:45:54.456Z,93.50
2019-04-22T09:51:03.683Z,94.00
2019-04-22T09:56:09.744Z,92.20
2019-04-22T10:01:24.580Z,93.00
2019-04-22T10:06:29.380Z,91.90
2019-04-22T10:16:39.382Z,90.90
2019-04-22T10:21:44.704Z,90.70
2019-04-22T10:31:49.512Z,90.50
2019-04-22T10:36:25.625Z,90.20
2019-04-22T10:41:28.426Z,90.80
2019-04-22T10:46:30.502Z,90.40
2019-04-22T10:51:32.717Z,91.00
2019-04-22T10:56:34.839Z,89.60
2019-04-22T11:01:38.449Z,91.30
2019-04-22T11:06:48.307Z,90.30
2019-04-22T11:11:51.098Z,89.10
2019-04-22T11:16:47.654Z,90.10
2019-04-22T11:22:00.979Z,90.70
2019-04-22T11:26:52.960Z,90.10
2019-04-22T11:31:54.730Z,90.60
2019-04-22T11:36:56.806Z,90.30
2019-04-22T11:41:58.578Z,87.40
2019-04-22T11:47:01.576Z,86.60
2019-04-22T11:52:06.812Z,85.80
2019-04-22T11:57:07.490Z,84.10
2019-04-22T12:02:09.310Z,83.60
2019-04-22T12:07:12.823Z,86.20
2019-04-22T12:12:15.922Z,84.30
2019-04-22T12:17:18.046Z,84.00
2019-04-22T12:22:20.871Z,82.60
2019-04-22T12:27:24.444Z,82.20
2019-04-22T12:32:27.330Z,84.00
2019-04-22T12:37:35.553Z,82.10
2019-04-22T12:42:33.240Z,81.40
2019-04-22T12:47:35.854Z,81.40
2019-04-22T12:52:45.780Z,82.80
2019-04-22T12:57:42.812Z,81.10
2019-04-22T13:02:44.990Z,81.30
2019-04-22T13:07:47.471Z,79.30
2019-04-22T13:12:49.243Z,82.10
2019-04-22T13:18:04.498Z,82.30
2019-04-22T13:22:54.732Z,79.60
2019-04-22T13:27:57.514Z,80.50
2019-04-22T13:33:00.796Z,79.30
2019-04-22T13:38:02.731Z,78.80
2019-04-22T13:43:18.724Z,79.30
2019-04-22T13:48:51.727Z,79.60
2019-04-22T13:54:32.932Z,78.70
2019-04-22T13:58:48.413Z,80.90
2019-04-22T14:03:58.751Z,78.90
2019-04-22T14:09:01.118Z,77.60
2019-04-22T14:14:04.961Z,78.80
2019-04-22T14:19:07.857Z,76.80
2019-04-22T14:24:12.513Z,74.80
2019-04-22T14:29:13.628Z,76.20
2019-04-22T14:34:16.830Z,77.70
2019-04-22T14:39:19.847Z,73.70
2019-04-22T14:45:12.247Z,73.30
2019-04-22T14:49:48.079Z,74.40
2019-04-22T14:54:43.200Z,73.10
2019-04-22T14:59:32.632Z,74.40
2019-04-22T15:04:35.079Z,74.30
2019-04-22T15:09:37.819Z,76.30
2019-04-22T15:14:39.618Z,77.50
2019-04-22T15:19:58.137Z,77.50
2019-04-22T15:25:00.744Z,78.20
2019-04-22T15:30:05.865Z,77.90
2019-04-22T15:35:09.072Z,77.20
2019-04-22T15:40:12.947Z,79.10
2019-04-22T15:45:16.579Z,79.10
2019-04-22T15:50:19.087Z,79.80
2019-04-22T15:55:20.788Z,80.00
2019-04-22T16:00:36.786Z,79.40
2019-04-22T16:05:27.952Z,80.20
2019-04-22T16:10:30.430Z,81.20
2019-04-22T16:15:32.130Z,82.20
2019-04-22T16:20:34.352Z,82.00
2019-04-22T16:25:42.952Z,82.60
2019-04-22T16:30:45.524Z,83.30
2019-04-22T16:35:48.809Z,84.10
2019-04-22T16:40:50.550Z,84.20
2019-04-22T16:45:53.654Z,85.20
2019-04-22T16:50:56.504Z,86.00
2019-04-22T16:55:59.179Z,85.60
2019-04-22T17:01:02.995Z,87.30
2019-04-22T17:06:13.873Z,88.10
2019-04-22T17:11:15.984Z,87.80
2019-04-22T17:16:18.109Z,89.10
2019-04-22T17:21:19.815Z,88.60
2019-04-22T17:26:21.366Z,89.10
2019-04-22T17:31:22.970Z,89.70
2019-04-22T17:36:24.526Z,90.40
2019-04-22T17:41:45.086Z,90.70
2019-04-22T17:46:44.639Z,91.10
2019-04-22T17:52:17.381Z,91.90
2019-04-22T17:57:15.328Z,91.80
2019-04-22T18:02:15.317Z,92.20
2019-04-22T18:07:35.455Z,92.80
2019-04-22T18:12:40.253Z,93.30
2019-04-22T18:17:35.460Z,93.30
2019-04-22T18:22:25.459Z,93.70
2019-04-22T18:27:48.947Z,94.30
2019-04-22T18:32:45.097Z,94.40
2019-04-22T18:37:48.344Z,94.80
2019-04-22T18:42:53.899Z,95.10
2019-04-22T18:47:52.194Z,95.30
2019-04-22T18:53:12.393Z,95.70
2019-04-22T18:58:06.579Z,96.00
2019-04-22T19:03:01.927Z,96.60
2019-04-22T19:08:26.347Z,96.30
2019-04-22T19:23:34.027Z,97.00
2019-04-22T19:28:49.445Z,97.50
2019-04-22T19:33:44.000Z,97.70
2019-04-22T19:38:31.132Z,97.70
2019-04-22T19:43:47.284Z,98.10
2019-04-22T19:48:49.340Z,98.30
2019-04-22T19:53:51.218Z,98.90
2019-04-22T19:58:53.227Z,99.00
2019-04-22T20:04:15.141Z,99.10
2019-04-22T20:09:13.974Z,99.30
2019-04-22T20:14:17.041Z,99.90
2019-04-22T20:19:26.739Z,99.90
2019-04-22T20:24:10.258Z,99.90
2019-04-22T20:29:35.209Z,99.90
2019-04-22T20:34:32.148Z,99.90
2019-04-22T20:39:39.665Z,99.90
2019-04-22T20:44:39.554Z,99.90
2019-04-22T20:49:44.393Z,99.90
2019-04-22T20:54:40.161Z,99.90
2019-04-22T20:59:46.992Z,99.90
2019-04-22T21:04:41.376Z,99.90
2019-04-22T21:09:50.583Z,99.90
2019-04-22T21:15:03.103Z,99.90
2019-04-22T21:20:06.737Z,99.90
2019-04-22T21:24:59.274Z,99.90
2019-04-22T21:29:58.122Z,99.90
2019-04-22T21:35:16.278Z,99.90
2019-04-22T21:40:18.237Z,99.90
2019-04-22T21:45:14.647Z,99.90
2019-04-22T21:50:37.839Z,99.90
2019-04-22T21:55:29.672Z,99.90
2019-04-22T22:00:44.616Z,99.90
2019-04-22T22:05:29.774Z,99.90
2019-04-22T22:10:49.202Z,99.90
2019-04-22T22:15:47.939Z,99.90
2019-04-22T22:21:12.851Z,99.90
2019-04-22T22:25:49.196Z,99.90
2019-04-22T22:31:05.028Z,99.90
2019-04-22T22:35:58.079Z,99.90
2019-04-22T22:40:45.897Z,99.90
2019-04-22T22:46:01.004Z,99.90
2019-04-22T22:51:15.101Z,99.90
2019-04-22T22:56:16.030Z,99.90
2019-04-22T23:01:23.434Z,99.90
2019-04-22T23:06:26.514Z,99.90
2019-04-22T23:11:45.745Z,99.90
2019-04-22T23:16:20.711Z,99.90
2019-04-22T23:21:19.260Z,99.90
2019-04-22T23:26:43.890Z,99.90
2019-04-22T23:31:36.888Z,99.90
2019-04-22T23:36:42.426Z,99.90
2019-04-22T23:42:18.229Z,99.90
2019-04-22T23:46:52.240Z,99.90
2019-04-22T23:56:56.366Z,99.90
